Time;durP1;ratioP1;P1;durP2;ratioP2;P2;SDS_P1;SDS_P2;PMS_P1;PMS_P2;Temp;Humidity;BMP_temperature;BMP_pressure;BME280_temperature;BME280_humidity;BME280_pressure;Samples;Min_cycle;Max_cycle;Signal;HPM_P1;HPM_P2
2023/03/18 00:00:46;;;;;;;3.47;2.90;;;;;;;;;;6302993;22;20034;-74
2023/03/18 00:03:13;;;;;;;4.28;3.08;;;;;;;;;;6302934;22;20079;-75
2023/03/18 00:05:40;;;;;;;4.10;2.78;;;;;;;;;;6302698;22;20534;-75
2023/03/18 00:08:06;;;;;;;3.90;2.70;;;;;;;;;;6303162;22;20017;-75
2023/03/18 00:10:33;;;;;;;2.92;2.65;;;;;;;;;;6302413;22;20015;-74
2023/03/18 00:13:00;;;;;;;3.30;3.10;;;;;;;;;;6301513;22;20007;-74
2023/03/18 00:15:26;;;;;;;5.40;3.20;;;;;;;;;;6302865;22;20011;-75
2023/03/18 00:17:53;;;;;;;3.10;2.90;;;;;;;;;;6302268;22;20011;-74
2023/03/18 00:20:27;;;;;;;4.38;3.15;;;;;;;;;;6302437;22;20015;-75
2023/03/18 00:22:54;;;;;;;3.42;3.13;;;;;;;;;;6302039;22;20363;-74
2023/03/18 00:25:20;;;;;;;3.03;2.83;;;;;;;;;;6301377;22;20007;-74
2023/03/18 00:27:46;;;;;;;3.45;3.15;;;;;;;;;;6302357;22;20035;-74
2023/03/18 00:30:12;;;;;;;5.00;3.70;;;;;;;;;;6302865;22;20030;-73
2023/03/18 00:32:40;;;;;;;3.83;2.83;;;;;;;;;;6302491;22;20011;-73
2023/03/18 00:35:06;;;;;;;3.08;2.83;;;;;;;;;;6275940;22;20011;-73
2023/03/18 00:37:34;;;;;;;4.18;2.65;;;;;;;;;;6275115;22;20526;-74
2023/03/18 00:40:05;;;;;;;3.53;3.08;;;;;;;;;;6303017;22;20042;-73
2023/03/18 00:42:36;;;;;;;6.10;4.07;;;;;;;;;;6302786;22;20045;-74
2023/03/18 00:45:03;;;;;;;3.40;2.70;;;;;;;;;;6302925;22;20233;-75
2023/03/18 00:47:29;;;;;;;13.45;3.03;;;;;;;;;;6275625;22;20019;-75
2023/03/18 00:49:56;;;;;;;3.92;3.50;;;;;;;;;;6302936;22;20084;-75
2023/03/18 00:52:22;;;;;;;3.22;2.75;;;;;;;;;;6249896;22;20019;-75
2023/03/18 00:54:49;;;;;;;3.65;3.30;;;;;;;;;;6302655;22;20042;-75
2023/03/18 00:57:15;;;;;;;4.45;3.30;;;;;;;;;;6275005;22;20011;-75
2023/03/18 00:59:41;;;;;;;6.75;3.08;;;;;;;;;;6302466;22;20015;-74
2023/03/18 01:02:07;;;;;;;3.65;3.17;;;;;;;;;;6302385;22;20047;-73
2023/03/18 01:04:33;;;;;;;3.25;2.85;;;;;;;;;;6302551;22;20420;-73
2023/03/18 01:07:00;;;;;;;3.95;2.60;;;;;;;;;;6303407;22;20094;-75
2023/03/18 01:09:26;;;;;;;4.43;3.30;;;;;;;;;;6275716;22;20086;-74
2023/03/18 01:11:52;;;;;;;4.97;3.15;;;;;;;;;;6274904;22;20034;-73
2023/03/18 01:14:18;;;;;;;4.32;3.78;;;;;;;;;;6302767;22;20034;-74
2023/03/18 01:16:45;;;;;;;3.40;2.67;;;;;;;;;;6301983;22;20055;-74
2023/03/18 01:19:12;;;;;;;3.78;3.25;;;;;;;;;;6275480;22;20015;-75
2023/03/18 01:21:38;;;;;;;5.03;3.33;;;;;;;;;;6301675;22;20011;-73
2023/03/18 01:24:05;;;;;;;6.38;3.90;;;;;;;;;;6275051;22;20021;-74
2023/03/18 01:26:33;;;;;;;4.28;3.70;;;;;;;;;;6274782;22;20035;-74
2023/03/18 01:29:00;;;;;;;6.45;4.40;;;;;;;;;;6275197;22;20038;-74
2023/03/18 01:31:28;;;;;;;6.65;3.80;;;;;;;;;;6275236;22;20336;-74
2023/03/18 01:33:59;;;;;;;8.93;5.05;;;;;;;;;;6275440;22;20011;-75
2023/03/18 01:36:27;;;;;;;8.90;4.85;;;;;;;;;;6276526;22;20359;-75
2023/03/18 01:39:06;;;;;;;3.95;3.47;;;;;;;;;;6277250;22;20033;-75
2023/03/18 01:41:33;;;;;;;8.07;4.57;;;;;;;;;;6276803;22;20018;-74
2023/03/18 01:44:00;;;;;;;6.80;5.00;;;;;;;;;;6302554;22;20019;-75
2023/03/18 01:46:27;;;;;;;5.57;4.00;;;;;;;;;;6276843;22;20007;-75
2023/03/18 01:48:53;;;;;;;6.05;3.95;;;;;;;;;;6304019;22;20015;-74
2023/03/18 01:51:20;;;;;;;6.47;4.00;;;;;;;;;;6276900;22;20007;-74
2023/03/18 01:53:47;;;;;;;4.78;3.30;;;;;;;;;;6276426;22;20011;-75
2023/03/18 01:56:14;;;;;;;4.93;4.40;;;;;;;;;;6276968;22;20082;-74
2023/03/18 01:58:42;;;;;;;5.63;3.85;;;;;;;;;;6302488;22;20391;-75
2023/03/18 02:01:29;;;;;;;6.13;3.95;;;;;;;;;;6277098;22;20018;-75
2023/03/18 02:03:59;;;;;;;4.40;3.65;;;;;;;;;;6277118;22;20463;-73
2023/03/18 02:06:25;;;;;;;4.97;3.47;;;;;;;;;;6276691;22;20014;-74
2023/03/18 02:08:59;;;;;;;10.50;4.07;;;;;;;;;;6276530;22;20464;-74
2023/03/18 02:11:25;;;;;;;3.15;2.85;;;;;;;;;;6276970;22;20092;-74
2023/03/18 02:13:56;;;;;;;6.65;3.83;;;;;;;;;;6276820;22;20015;-74
2023/03/18 02:16:31;;;;;;;5.10;3.67;;;;;;;;;;6276619;22;20007;-73
2023/03/18 02:18:59;;;;;;;5.63;4.00;;;;;;;;;;6302449;22;20015;-74
2023/03/18 02:21:37;;;;;;;3.75;3.40;;;;;;;;;;6256246;22;20094;-73
2023/03/18 02:24:04;;;;;;;3.55;3.22;;;;;;;;;;6271706;22;20011;-74
2023/03/18 02:26:49;;;;;;;3.30;2.97;;;;;;;;;;6271486;22;20008;-74
2023/03/18 02:29:21;;;;;;;3.53;2.60;;;;;;;;;;6271302;22;20455;-74
2023/03/18 02:31:55;;;;;;;3.45;3.10;;;;;;;;;;6270511;22;20012;-74
2023/03/18 02:34:25;;;;;;;4.53;3.28;;;;;;;;;;6271401;22;20647;-75
2023/03/18 02:36:54;;;;;;;7.80;3.42;;;;;;;;;;6272770;22;20451;-75
2023/03/18 02:39:20;;;;;;;4.88;3.20;;;;;;;;;;6272876;22;20467;-74
2023/03/18 02:41:47;;;;;;;4.25;2.50;;;;;;;;;;6270914;22;20384;-74
2023/03/18 02:44:13;;;;;;;4.50;3.45;;;;;;;;;;6272735;22;20015;-73
2023/03/18 02:47:01;;;;;;;4.93;2.90;;;;;;;;;;6270752;22;20090;-74
2023/03/18 02:49:28;;;;;;;4.93;3.40;;;;;;;;;;6272889;22;20012;-74
2023/03/18 02:51:54;;;;;;;6.82;3.10;;;;;;;;;;6245614;22;20019;-74
2023/03/18 02:54:24;;;;;;;2.85;2.65;;;;;;;;;;6271182;22;20015;-74
2023/03/18 02:56:50;;;;;;;4.95;3.58;;;;;;;;;;6270784;22;20015;-74
2023/03/18 02:59:17;;;;;;;4.35;2.92;;;;;;;;;;6271080;22;20027;-74
2023/03/18 03:01:44;;;;;;;4.13;3.75;;;;;;;;;;6272023;22;20106;-74
2023/03/18 03:04:11;;;;;;;4.13;3.53;;;;;;;;;;6271161;22;20022;-74
2023/03/18 03:06:37;;;;;;;4.18;2.92;;;;;;;;;;6271140;22;20348;-74
2023/03/18 03:09:04;;;;;;;6.30;3.38;;;;;;;;;;6245575;22;20487;-74
2023/03/18 03:11:31;;;;;;;8.05;3.42;;;;;;;;;;6272744;22;20008;-75
2023/03/18 03:14:05;;;;;;;5.70;3.25;;;;;;;;;;6271956;22;20095;-74
2023/03/18 03:16:33;;;;;;;7.30;3.90;;;;;;;;;;6245762;22;20018;-74
2023/03/18 03:18:59;;;;;;;4.55;3.17;;;;;;;;;;6270962;22;20418;-74
2023/03/18 03:21:25;;;;;;;4.57;3.42;;;;;;;;;;6275569;22;20054;-74
2023/03/18 03:23:51;;;;;;;6.13;3.20;;;;;;;;;;6275994;22;20015;-74
2023/03/18 03:26:18;;;;;;;3.17;2.88;;;;;;;;;;6276076;22;20007;-74
2023/03/18 03:28:45;;;;;;;5.25;3.25;;;;;;;;;;6276093;22;20017;-74
2023/03/18 03:31:12;;;;;;;4.07;3.67;;;;;;;;;;6303636;22;20085;-72
2023/03/18 03:33:40;;;;;;;3.67;3.08;;;;;;;;;;6276171;22;20076;-74
2023/03/18 03:36:07;;;;;;;3.95;2.30;;;;;;;;;;6275746;22;20007;-74
2023/03/18 03:38:34;;;;;;;3.05;2.85;;;;;;;;;;6301364;22;20023;-73
2023/03/18 03:41:01;;;;;;;3.90;2.97;;;;;;;;;;6275695;22;20007;-74
2023/03/18 03:43:27;;;;;;;5.78;3.03;;;;;;;;;;6301298;22;20030;-73
2023/03/18 03:45:53;;;;;;;3.38;3.10;;;;;;;;;;6275631;22;20018;-74
2023/03/18 03:48:19;;;;;;;2.70;2.50;;;;;;;;;;6276212;22;20050;-74
2023/03/18 03:50:46;;;;;;;2.90;2.38;;;;;;;;;;6276140;22;20003;-74
2023/03/18 03:53:12;;;;;;;6.35;3.08;;;;;;;;;;6276314;22;20015;-74
2023/03/18 03:55:40;;;;;;;5.00;3.70;;;;;;;;;;6276038;22;20011;-74
2023/03/18 03:58:06;;;;;;;2.83;2.58;;;;;;;;;;6275770;22;20015;-76
2023/03/18 04:00:33;;;;;;;3.47;2.65;;;;;;;;;;6276022;22;20019;-74
2023/03/18 04:02:59;;;;;;;7.22;3.17;;;;;;;;;;6275769;22;20045;-73
2023/03/18 04:05:26;;;;;;;3.72;2.50;;;;;;;;;;6275775;22;20404;-74
2023/03/18 04:07:53;;;;;;;3.00;2.80;;;;;;;;;;6302810;22;20405;-74
2023/03/18 04:10:27;;;;;;;3.75;2.83;;;;;;;;;;6275789;22;20011;-74
2023/03/18 04:12:54;;;;;;;3.10;2.80;;;;;;;;;;6302783;22;20018;-74
2023/03/18 04:15:20;;;;;;;3.00;2.80;;;;;;;;;;6303200;22;20015;-75
2023/03/18 04:17:48;;;;;;;4.78;2.95;;;;;;;;;;6276061;22;20022;-75
2023/03/18 04:20:17;;;;;;;8.32;3.42;;;;;;;;;;6250673;22;20019;-75
2023/03/18 04:22:44;;;;;;;6.45;3.60;;;;;;;;;;6252413;22;20030;-76
2023/03/18 04:25:13;;;;;;;2.67;2.50;;;;;;;;;;6253782;22;20010;-74
2023/03/18 04:27:40;;;;;;;4.13;3.05;;;;;;;;;;6276134;22;20018;-75
2023/03/18 04:30:08;;;;;;;3.38;3.08;;;;;;;;;;6250693;22;20043;-76
2023/03/18 04:32:44;;;;;;;5.47;2.80;;;;;;;;;;6276974;22;20011;-76
2023/03/18 04:35:10;;;;;;;8.25;3.83;;;;;;;;;;6304644;22;20007;-76
2023/03/18 04:37:37;;;;;;;3.13;2.53;;;;;;;;;;6277910;22;20010;-77
2023/03/18 04:40:04;;;;;;;3.90;3.20;;;;;;;;;;6306937;22;20007;-77
2023/03/18 04:42:31;;;;;;;6.15;2.70;;;;;;;;;;6287711;22;20093;-79
2023/03/18 04:44:57;;;;;;;3.47;2.83;;;;;;;;;;6289178;22;20044;-78
2023/03/18 04:47:23;;;;;;;4.35;2.90;;;;;;;;;;6289097;22;20007;-80
2023/03/18 04:49:51;;;;;;;5.97;2.78;;;;;;;;;;6288795;22;20064;-77
2023/03/18 04:52:17;;;;;;;4.78;3.28;;;;;;;;;;6286223;22;20015;-79
2023/03/18 04:54:43;;;;;;;2.95;2.75;;;;;;;;;;6280444;22;20394;-80
2023/03/18 04:57:10;;;;;;;3.45;2.80;;;;;;;;;;6277255;22;20149;-79
2023/03/18 04:59:42;;;;;;;2.65;2.45;;;;;;;;;;6277329;22;20026;-80
2023/03/18 05:02:08;;;;;;;2.88;2.67;;;;;;;;;;6302437;22;20374;-80
2023/03/18 05:04:36;;;;;;;2.85;2.65;;;;;;;;;;6275657;22;20017;-72
2023/03/18 05:07:02;;;;;;;5.13;3.42;;;;;;;;;;6301340;22;20041;-75
2023/03/18 05:09:34;;;;;;;3.95;3.53;;;;;;;;;;6275640;22;20014;-77
2023/03/18 05:12:00;;;;;;;2.60;2.22;;;;;;;;;;6278188;22;20026;-77
2023/03/18 05:14:34;;;;;;;3.83;2.92;;;;;;;;;;6280779;22;20011;-78
2023/03/18 05:17:02;;;;;;;3.13;2.83;;;;;;;;;;6278982;22;20015;-80
2023/03/18 05:19:36;;;;;;;3.40;2.75;;;;;;;;;;6277856;22;20011;-78
2023/03/18 05:22:11;;;;;;;3.97;2.72;;;;;;;;;;6272048;22;20019;-78
2023/03/18 05:24:38;;;;;;;5.75;3.15;;;;;;;;;;6247094;22;20042;-76
2023/03/18 05:27:04;;;;;;;4.32;3.28;;;;;;;;;;6220825;22;20008;-78
2023/03/18 05:29:37;;;;;;;5.72;3.53;;;;;;;;;;6246654;22;20066;-78
2023/03/18 05:32:16;;;;;;;3.90;3.00;;;;;;;;;;6202008;22;20094;-78
2023/03/18 05:34:44;;;;;;;4.28;1.98;;;;;;;;;;6271396;22;20027;-77
2023/03/18 05:37:12;;;;;;;3.10;2.58;;;;;;;;;;6220991;22;20022;-79
2023/03/18 05:39:44;;;;;;;4.28;2.58;;;;;;;;;;6246535;22;20018;-80
2023/03/18 05:42:13;;;;;;;4.70;3.35;;;;;;;;;;6245951;22;20020;-79
2023/03/18 05:44:39;;;;;;;3.50;3.20;;;;;;;;;;6273585;22;20094;-80
2023/03/18 05:47:08;;;;;;;3.15;2.85;;;;;;;;;;6247212;22;20018;-79
2023/03/18 05:50:01;;;;;;;3.20;2.80;;;;;;;;;;6269862;22;20016;-80
2023/03/18 05:52:29;;;;;;;2.80;2.60;;;;;;;;;;6274581;22;20015;-81
2023/03/18 05:55:01;;;;;;;2.72;2.53;;;;;;;;;;6221895;22;20090;-80
2023/03/18 05:57:32;;;;;;;3.10;2.50;;;;;;;;;;6248391;22;20026;-80
2023/03/18 06:00:01;;;;;;;2.80;2.60;;;;;;;;;;6246341;22;20364;-78
2023/03/18 06:02:42;;;;;;;2.47;2.28;;;;;;;;;;6271832;22;20065;-78
2023/03/18 06:05:09;;;;;;;2.60;2.40;;;;;;;;;;6244333;22;20015;-81
2023/03/18 06:07:35;;;;;;;2.50;2.30;;;;;;;;;;6273090;22;20724;-79
2023/03/18 06:10:01;;;;;;;3.33;2.35;;;;;;;;;;6272935;22;20019;-79
2023/03/18 06:12:28;;;;;;;3.30;2.53;;;;;;;;;;6246861;22;20070;-79
2023/03/18 06:14:54;;;;;;;2.78;2.58;;;;;;;;;;6273559;22;20029;-75
2023/03/18 06:17:21;;;;;;;2.97;2.70;;;;;;;;;;6245751;22;20004;-76
2023/03/18 06:19:48;;;;;;;2.70;2.50;;;;;;;;;;6246135;22;20156;-76
2023/03/18 06:22:15;;;;;;;5.15;2.72;;;;;;;;;;6215819;22;20039;-77
2023/03/18 06:24:42;;;;;;;3.95;2.80;;;;;;;;;;6243857;22;20035;-77
2023/03/18 06:27:08;;;;;;;2.70;2.50;;;;;;;;;;6243879;22;20011;-78
2023/03/18 06:29:36;;;;;;;3.60;2.53;;;;;;;;;;6271885;22;20016;-81
2023/03/18 06:32:10;;;;;;;3.53;2.60;;;;;;;;;;6197472;22;20020;-77
2023/03/18 06:34:36;;;;;;;4.75;2.63;;;;;;;;;;6218872;22;20011;-78
2023/03/18 06:37:03;;;;;;;1.58;1.58;;;;;;;;;;6241547;22;20015;-77
2023/03/18 06:39:33;;;;;;;2.97;2.78;;;;;;;;;;6237042;22;20424;-78
2023/03/18 06:42:02;;;;;;;;;;;;;;;;;;6242139;22;20020;-77
2023/03/18 06:44:36;;;;;;;4.22;2.78;;;;;;;;;;6269188;22;19913;-81
2023/03/18 06:47:17;;;;;;;1.85;1.77;;;;;;;;;;6244788;22;20575;-78
2023/03/18 06:49:50;;;;;;;3.08;2.88;;;;;;;;;;6246322;22;20061;-79
2023/03/18 06:52:22;;;;;;;2.75;2.55;;;;;;;;;;6245248;22;20011;-79
2023/03/18 06:54:50;;;;;;;3.05;2.80;;;;;;;;;;6244700;22;20353;-82
2023/03/18 06:57:17;;;;;;;2.08;1.98;;;;;;;;;;6220374;22;20019;-80
2023/03/18 06:59:44;;;;;;;3.42;2.58;;;;;;;;;;6244716;22;20011;-80
2023/03/18 07:02:10;;;;;;;2.15;2.05;;;;;;;;;;6243594;22;20020;-81
2023/03/18 07:04:36;;;;;;;2.72;2.45;;;;;;;;;;6244941;22;20359;-79
2023/03/18 07:07:03;;;;;;;2.35;2.25;;;;;;;;;;6244414;22;20007;-79
2023/03/18 07:09:30;;;;;;;2.47;2.22;;;;;;;;;;6245029;22;20043;-79
2023/03/18 07:11:58;;;;;;;2.70;2.42;;;;;;;;;;6244301;22;20405;-81
2023/03/18 07:14:24;;;;;;;2.38;2.17;;;;;;;;;;6245193;22;20073;-79
2023/03/18 07:16:50;;;;;;;3.33;3.08;;;;;;;;;;6245845;22;20329;-81
2023/03/18 07:19:17;;;;;;;2.25;2.15;;;;;;;;;;6220386;22;20020;-78
2023/03/18 07:21:45;;;;;;;2.40;2.10;;;;;;;;;;6273757;22;20076;-81
2023/03/18 07:24:11;;;;;;;3.10;2.30;;;;;;;;;;6301696;22;20023;-81
2023/03/18 07:26:37;;;;;;;2.47;2.22;;;;;;;;;;6303840;22;20439;-81
2023/03/18 07:29:04;;;;;;;3.83;1.92;;;;;;;;;;6251669;22;20022;-81
2023/03/18 07:31:30;;;;;;;2.85;2.65;;;;;;;;;;6275970;22;20098;-81
2023/03/18 07:33:56;;;;;;;4.18;3.78;;;;;;;;;;6275042;22;20046;-81
2023/03/18 07:36:22;;;;;;;4.30;4.00;;;;;;;;;;6302711;22;20011;-82
2023/03/18 07:38:48;;;;;;;2.53;2.33;;;;;;;;;;6301110;22;20018;-82
2023/03/18 07:41:15;;;;;;;2.03;1.80;;;;;;;;;;6302980;22;20007;-80
2023/03/18 07:43:42;;;;;;;2.08;1.98;;;;;;;;;;6299794;22;20341;-81
2023/03/18 07:46:08;;;;;;;2.20;2.10;;;;;;;;;;6301240;22;20488;-82
2023/03/18 07:48:34;;;;;;;2.20;2.10;;;;;;;;;;6276399;22;20030;-81
2023/03/18 07:51:00;;;;;;;2.22;2.13;;;;;;;;;;6276052;22;20018;-81
2023/03/18 07:53:26;;;;;;;4.07;2.40;;;;;;;;;;6303412;22;20069;-81
2023/03/18 07:55:53;;;;;;;2.63;2.53;;;;;;;;;;6276784;22;20080;-80
2023/03/18 07:58:19;;;;;;;7.07;2.30;;;;;;;;;;6277085;22;20047;-83
2023/03/18 08:00:45;;;;;;;1.70;1.70;;;;;;;;;;6304692;22;20379;-81
2023/03/18 08:03:12;;;;;;;1.48;1.40;;;;;;;;;;6276317;22;20463;-82
2023/03/18 08:05:39;;;;;;;1.60;1.50;;;;;;;;;;6303242;22;20007;-81
2023/03/18 08:08:05;;;;;;;1.60;1.50;;;;;;;;;;6301385;22;20072;-82
2023/03/18 08:10:32;;;;;;;1.85;1.75;;;;;;;;;;6300999;22;20027;-82
2023/03/18 08:12:58;;;;;;;1.83;1.70;;;;;;;;;;6301464;22;19995;-82
2023/03/18 08:15:24;;;;;;;1.80;1.70;;;;;;;;;;6275593;22;20011;-81
2023/03/18 08:17:52;;;;;;;2.20;2.00;;;;;;;;;;6272203;22;20017;-81
2023/03/18 08:20:18;;;;;;;1.58;1.58;;;;;;;;;;6301628;22;20090;-81
2023/03/18 08:22:45;;;;;;;2.40;2.20;;;;;;;;;;6302658;22;20019;-80
2023/03/18 08:25:12;;;;;;;2.30;2.20;;;;;;;;;;6301129;22;20013;-80
2023/03/18 08:27:38;;;;;;;2.00;1.90;;;;;;;;;;6302322;22;20011;-81
2023/03/18 08:30:05;;;;;;;2.05;1.95;;;;;;;;;;6300044;22;20822;-80
2023/03/18 08:32:32;;;;;;;3.88;2.53;;;;;;;;;;6300011;22;20090;-81
2023/03/18 08:34:58;;;;;;;1.98;1.88;;;;;;;;;;6303893;22;20019;-80
2023/03/18 08:37:24;;;;;;;1.83;1.73;;;;;;;;;;6302971;22;20017;-80
2023/03/18 08:39:50;;;;;;;2.85;2.42;;;;;;;;;;6303942;22;20011;-81
2023/03/18 08:42:17;;;;;;;6.50;1.83;;;;;;;;;;6304629;22;20022;-82
2023/03/18 08:44:44;;;;;;;1.70;1.60;;;;;;;;;;6303336;22;20018;-83
2023/03/18 08:47:10;;;;;;;1.95;1.85;;;;;;;;;;6302377;22;20011;-79
2023/03/18 08:49:36;;;;;;;1.65;1.58;;;;;;;;;;6298691;22;20450;-77
2023/03/18 08:52:02;;;;;;;1.98;1.80;;;;;;;;;;6272837;22;20010;-78
2023/03/18 08:54:28;;;;;;;2.10;2.00;;;;;;;;;;6301082;22;20011;-78
2023/03/18 08:56:55;;;;;;;2.80;2.05;;;;;;;;;;6300906;22;20105;-76
2023/03/18 08:59:21;;;;;;;5.43;1.58;;;;;;;;;;6300945;22;20007;-79
2023/03/18 09:01:48;;;;;;;3.80;1.77;;;;;;;;;;6274079;22;20496;-80
2023/03/18 09:04:13;;;;;;;1.63;1.52;;;;;;;;;;6298340;22;20037;-79
2023/03/18 09:06:40;;;;;;;2.10;2.00;;;;;;;;;;6300860;22;20012;-77
2023/03/18 09:09:07;;;;;;;1.60;1.50;;;;;;;;;;6301234;22;20098;-76
2023/03/18 09:11:33;;;;;;;2.00;1.90;;;;;;;;;;6274825;22;20011;-80
2023/03/18 09:13:59;;;;;;;1.77;1.70;;;;;;;;;;6279864;22;20094;-82
2023/03/18 09:16:25;;;;;;;1.75;1.65;;;;;;;;;;6305653;22;20037;-82
2023/03/18 09:18:51;;;;;;;1.65;1.55;;;;;;;;;;6308795;22;20018;-82
2023/03/18 09:21:18;;;;;;;2.20;1.83;;;;;;;;;;6313134;22;20011;-81
2023/03/18 09:23:44;;;;;;;1.70;1.60;;;;;;;;;;6311613;22;20023;-83
2023/03/18 09:26:10;;;;;;;1.60;1.50;;;;;;;;;;6271687;22;20043;-77
2023/03/18 09:28:36;;;;;;;1.80;1.70;;;;;;;;;;6272010;22;20015;-77
2023/03/18 09:31:02;;;;;;;1.88;1.77;;;;;;;;;;6297110;22;20042;-78
2023/03/18 09:33:29;;;;;;;7.95;1.70;;;;;;;;;;6298699;22;20046;-76
2023/03/18 09:35:54;;;;;;;1.70;1.60;;;;;;;;;;6299480;22;20470;-78
2023/03/18 09:38:21;;;;;;;4.38;1.80;;;;;;;;;;6273294;22;20011;-78
2023/03/18 09:41:05;;;;;;;1.92;1.83;;;;;;;;;;6301153;22;20066;-77
2023/03/18 09:43:43;;;;;;;1.67;1.58;;;;;;;;;;6303196;22;20088;-78
2023/03/18 09:46:21;;;;;;;1.60;1.60;;;;;;;;;;6302944;22;20412;-77
2023/03/18 09:48:48;;;;;;;1.88;1.73;;;;;;;;;;6301852;22;20336;-81
2023/03/18 09:51:27;;;;;;;2.20;1.85;;;;;;;;;;6304093;22;20057;-80
2023/03/18 09:54:12;;;;;;;1.40;1.40;;;;;;;;;;6303068;22;20078;-80
2023/03/18 09:56:38;;;;;;;1.92;1.70;;;;;;;;;;6273415;22;20011;-79
2023/03/18 09:59:17;;;;;;;1.95;1.85;;;;;;;;;;6301324;22;20097;-78
2023/03/18 10:01:43;;;;;;;2.05;1.83;;;;;;;;;;6275834;22;20102;-80
2023/03/18 10:04:10;;;;;;;1.50;1.50;;;;;;;;;;6303380;22;20043;-79
2023/03/18 10:06:41;;;;;;;1.63;1.52;;;;;;;;;;6304531;22;20015;-78
2023/03/18 10:09:15;;;;;;;2.20;2.10;;;;;;;;;;6306820;22;20011;-79
2023/03/18 10:11:46;;;;;;;2.00;1.83;;;;;;;;;;6305820;22;20313;-80
2023/03/18 10:14:21;;;;;;;3.95;3.65;;;;;;;;;;6281551;22;20021;-82
2023/03/18 10:16:54;;;;;;;1.70;1.65;;;;;;;;;;6308239;22;20057;-80
2023/03/18 10:19:20;;;;;;;1.42;1.38;;;;;;;;;;6304780;22;20015;-78
2023/03/18 10:21:53;;;;;;;1.60;1.52;;;;;;;;;;6305777;22;20085;-79
2023/03/18 10:24:28;;;;;;;3.30;3.10;;;;;;;;;;6281598;22;20011;-80
2023/03/18 10:26:57;;;;;;;2.10;1.92;;;;;;;;;;6305370;22;20053;-80
2023/03/18 10:29:44;;;;;;;2.58;2.40;;;;;;;;;;6307348;22;20015;-80
2023/03/18 10:32:36;;;;;;;2.15;1.90;;;;;;;;;;6309551;22;20016;-76
2023/03/18 10:35:05;;;;;;;1.50;1.40;;;;;;;;;;6311634;22;20034;-77
2023/03/18 10:38:04;;;;;;;1.60;1.50;;;;;;;;;;6316513;22;20022;-79
2023/03/18 10:40:33;;;;;;;1.60;1.50;;;;;;;;;;6265755;22;20015;-78
2023/03/18 10:42:59;;;;;;;2.00;1.85;;;;;;;;;;6294194;22;20030;-78
2023/03/18 10:45:26;;;;;;;1.52;1.42;;;;;;;;;;6322355;22;20011;-79
2023/03/18 10:47:58;;;;;;;2.38;1.85;;;;;;;;;;6320886;22;20037;-76
2023/03/18 10:50:28;;;;;;;3.83;1.70;;;;;;;;;;6323261;22;20043;-78
2023/03/18 10:53:24;;;;;;;2.25;2.10;;;;;;;;;;6296970;22;20479;-78
2023/03/18 10:56:03;;;;;;;1.30;1.30;;;;;;;;;;6303372;22;20011;-79
2023/03/18 10:58:29;;;;;;;1.63;1.52;;;;;;;;;;6290241;22;20030;-80
2023/03/18 11:00:55;;;;;;;2.13;2.03;;;;;;;;;;6306317;22;20015;-79
2023/03/18 11:03:29;;;;;;;1.60;1.60;;;;;;;;;;6304863;22;20439;-79
2023/03/18 11:05:55;;;;;;;2.28;2.08;;;;;;;;;;6305338;22;20018;-79
2023/03/18 11:08:33;;;;;;;1.63;1.52;;;;;;;;;;6304164;22;20007;-79
2023/03/18 11:11:14;;;;;;;5.25;1.92;;;;;;;;;;6304677;22;20008;-79
2023/03/18 11:13:44;;;;;;;1.83;1.73;;;;;;;;;;6278386;22;20430;-79
2023/03/18 11:16:12;;;;;;;2.80;2.33;;;;;;;;;;6304715;22;20011;-78
2023/03/18 11:18:39;;;;;;;2.33;2.22;;;;;;;;;;6305003;22;20098;-79
2023/03/18 11:21:11;;;;;;;2.42;2.33;;;;;;;;;;6263330;22;20070;-79
2023/03/18 11:24:07;;;;;;;2.38;2.17;;;;;;;;;;6274770;22;20468;-79
2023/03/18 11:26:52;;;;;;;3.67;1.90;;;;;;;;;;6273691;22;20007;-79
2023/03/18 11:29:20;;;;;;;1.90;1.80;;;;;;;;;;6273534;22;20022;-79
2023/03/18 11:31:59;;;;;;;1.85;1.75;;;;;;;;;;6275775;22;20498;-79
2023/03/18 11:34:25;;;;;;;2.03;1.92;;;;;;;;;;6275330;22;20015;-79
2023/03/18 11:37:12;;;;;;;2.00;1.90;;;;;;;;;;6273944;22;20030;-79
2023/03/18 11:39:39;;;;;;;2.25;2.05;;;;;;;;;;6274183;22;20069;-79
2023/03/18 11:42:18;;;;;;;1.73;1.60;;;;;;;;;;6274149;22;20015;-78
2023/03/18 11:44:45;;;;;;;1.63;1.52;;;;;;;;;;6274012;22;20012;-79
2023/03/18 11:47:14;;;;;;;1.48;1.38;;;;;;;;;;6272684;22;20011;-78
2023/03/18 11:49:42;;;;;;;1.83;1.38;;;;;;;;;;6274344;22;20015;-79
2023/03/18 11:52:08;;;;;;;1.92;1.13;;;;;;;;;;6247566;22;20011;-79
2023/03/18 11:54:57;;;;;;;1.73;1.63;;;;;;;;;;6276170;22;20012;-79
2023/03/18 11:57:32;;;;;;;0.98;0.98;;;;;;;;;;6281285;22;20046;-78
2023/03/18 11:59:58;;;;;;;9.18;1.55;;;;;;;;;;6282063;22;20012;-78
2023/03/18 12:02:24;;;;;;;1.60;1.50;;;;;;;;;;6284020;22;20417;-78
2023/03/18 12:04:56;;;;;;;1.25;1.25;;;;;;;;;;6280900;22;20012;-79
2023/03/18 12:07:55;;;;;;;2.60;1.50;;;;;;;;;;6279219;22;20057;-81
2023/03/18 12:10:27;;;;;;;1.70;1.60;;;;;;;;;;6244053;22;20042;-78
2023/03/18 12:13:03;;;;;;;1.50;1.40;;;;;;;;;;6245841;22;20363;-80
2023/03/18 12:15:30;;;;;;;1.80;1.70;;;;;;;;;;6272528;22;20099;-78
2023/03/18 12:17:58;;;;;;;1.65;1.55;;;;;;;;;;6272443;22;20440;-81
2023/03/18 12:20:30;;;;;;;1.20;1.20;;;;;;;;;;6287427;22;20072;-80
2023/03/18 12:23:00;;;;;;;2.03;1.92;;;;;;;;;;6310468;22;20023;-80
2023/03/18 12:25:42;;;;;;;3.17;2.20;;;;;;;;;;6303943;22;20018;-80
2023/03/18 12:28:22;;;;;;;1.80;1.60;;;;;;;;;;6304416;22;20042;-79
2023/03/18 12:30:51;;;;;;;2.47;2.28;;;;;;;;;;6305250;22;20467;-80
2023/03/18 12:33:23;;;;;;;2.50;2.30;;;;;;;;;;6277184;22;20018;-80
2023/03/18 12:35:52;;;;;;;1.70;1.60;;;;;;;;;;6302710;22;20068;-79
2023/03/18 12:38:37;;;;;;;1.92;1.83;;;;;;;;;;6302234;22;20065;-80
2023/03/18 12:41:24;;;;;;;1.70;1.52;;;;;;;;;;6304889;22;20099;-81
2023/03/18 12:44:08;;;;;;;1.25;1.15;;;;;;;;;;6304349;22;20461;-80
2023/03/18 12:46:36;;;;;;;1.20;1.20;;;;;;;;;;6304006;22;20012;-80
2023/03/18 12:49:08;;;;;;;1.35;1.30;;;;;;;;;;6300116;22;20022;-77
2023/03/18 12:51:44;;;;;;;1.80;1.70;;;;;;;;;;6276646;22;20098;-80
2023/03/18 12:54:14;;;;;;;4.03;2.83;;;;;;;;;;6301159;22;20140;-77
2023/03/18 12:56:44;;;;;;;3.33;2.50;;;;;;;;;;6302598;22;20101;-78
2023/03/18 12:59:15;;;;;;;2.67;2.55;;;;;;;;;;6302802;22;20015;-77
2023/03/18 13:01:46;;;;;;;1.73;1.63;;;;;;;;;;6301576;22;20007;-77
2023/03/18 13:04:14;;;;;;;1.75;1.42;;;;;;;;;;6301489;22;20015;-77
2023/03/18 13:06:45;;;;;;;2.05;1.65;;;;;;;;;;6303653;22;20102;-77
2023/03/18 13:09:12;;;;;;;1.60;1.50;;;;;;;;;;6301355;22;20015;-77
2023/03/18 13:11:57;;;;;;;1.63;1.55;;;;;;;;;;6301463;22;20014;-77
2023/03/18 13:14:43;;;;;;;1.17;1.15;;;;;;;;;;6302986;22;20436;-78
2023/03/18 13:17:11;;;;;;;1.48;1.48;;;;;;;;;;6303070;22;20853;-78
2023/03/18 13:19:37;;;;;;;1.13;1.13;;;;;;;;;;6302115;22;20061;-77
2023/03/18 13:22:03;;;;;;;1.80;1.70;;;;;;;;;;6273695;22;20019;-78
2023/03/18 13:24:41;;;;;;;1.30;1.30;;;;;;;;;;6271013;22;20028;-77
2023/03/18 13:27:11;;;;;;;1.38;1.38;;;;;;;;;;6270739;22;20523;-79
2023/03/18 13:29:38;;;;;;;1.75;1.65;;;;;;;;;;6270786;22;20011;-78
2023/03/18 13:32:15;;;;;;;1.20;1.10;;;;;;;;;;6273692;22;20478;-78
2023/03/18 13:34:56;;;;;;;1.88;1.70;;;;;;;;;;6272915;22;20080;-77
2023/03/18 13:37:31;;;;;;;1.45;1.42;;;;;;;;;;6275912;22;20012;-78
2023/03/18 13:40:16;;;;;;;2.67;1.60;;;;;;;;;;6275098;22;20012;-77
2023/03/18 13:42:43;;;;;;;1.70;1.60;;;;;;;;;;6274601;22;20062;-79
2023/03/18 13:45:12;;;;;;;1.15;1.15;;;;;;;;;;6274944;22;20057;-78
2023/03/18 13:47:40;;;;;;;1.30;1.30;;;;;;;;;;6273297;22;20030;-80
2023/03/18 13:50:21;;;;;;;1.98;1.85;;;;;;;;;;6248807;22;20172;-78
2023/03/18 13:52:47;;;;;;;1.45;1.45;;;;;;;;;;6273649;22;20015;-78
2023/03/18 13:55:16;;;;;;;1.67;1.63;;;;;;;;;;6272501;22;20015;-78
2023/03/18 13:58:04;;;;;;;1.63;1.52;;;;;;;;;;6274230;22;20102;-79
2023/03/18 14:00:33;;;;;;;1.35;1.33;;;;;;;;;;6242587;22;20022;-77
2023/03/18 14:03:20;;;;;;;1.48;1.38;;;;;;;;;;6272784;22;20023;-79
2023/03/18 14:05:47;;;;;;;1.63;1.50;;;;;;;;;;6274728;22;20012;-80
2023/03/18 14:08:31;;;;;;;1.85;1.75;;;;;;;;;;6273303;22;20018;-80
2023/03/18 14:11:25;;;;;;;2.10;2.00;;;;;;;;;;6273076;22;20061;-79
2023/03/18 14:14:01;;;;;;;1.80;1.70;;;;;;;;;;6249725;22;20011;-77
2023/03/18 14:16:36;;;;;;;1.88;1.77;;;;;;;;;;6273744;22;20008;-78
2023/03/18 14:19:11;;;;;;;3.55;2.05;;;;;;;;;;6274093;22;20094;-77
2023/03/18 14:21:43;;;;;;;1.42;1.42;;;;;;;;;;6296995;22;20022;-78
2023/03/18 14:24:12;;;;;;;3.45;2.40;;;;;;;;;;6303948;22;20015;-80
2023/03/18 14:26:40;;;;;;;2.30;1.75;;;;;;;;;;6303947;22;20033;-77
2023/03/18 14:29:05;;;;;;;1.65;1.60;;;;;;;;;;6304159;22;20053;-78
2023/03/18 14:31:31;;;;;;;1.10;1.10;;;;;;;;;;6252843;22;20011;-80
2023/03/18 14:33:59;;;;;;;5.75;1.33;;;;;;;;;;6304439;22;20015;-77
2023/03/18 14:36:51;;;;;;;2.55;1.77;;;;;;;;;;6304172;22;20015;-78
2023/03/18 14:39:36;;;;;;;2.20;2.10;;;;;;;;;;6268362;22;20022;-77
2023/03/18 14:42:02;;;;;;;2.10;2.00;;;;;;;;;;6304171;22;20087;-77
2023/03/18 14:44:28;;;;;;;1.98;1.88;;;;;;;;;;6303950;22;20015;-77
2023/03/18 14:46:58;;;;;;;2.95;2.42;;;;;;;;;;6278292;22;20017;-78
2023/03/18 14:49:24;;;;;;;2.50;2.35;;;;;;;;;;6303031;22;20021;-78
2023/03/18 14:51:50;;;;;;;2.13;2.03;;;;;;;;;;6277298;22;20007;-79
2023/03/18 14:54:19;;;;;;;2.60;2.40;;;;;;;;;;6277325;22;20015;-78
2023/03/18 14:56:50;;;;;;;2.78;2.58;;;;;;;;;;6303582;22;20007;-78
2023/03/18 14:59:17;;;;;;;2.83;2.58;;;;;;;;;;6302917;22;20011;-78